sensor_id;sensor_type;location;lat;lon;timestamp;P1;durP1;ratioP1;P2;durP2;ratioP2
41530;SDS011;58990;46.284;13.126;2022-11-15T00:00:15;4.50;;;2.10;;
41530;SDS011;58990;46.284;13.126;2022-11-15T00:02:41;2.13;;;1.88;;
41530;SDS011;58990;46.284;13.126;2022-11-15T00:05:09;2.40;;;2.00;;
41530;SDS011;58990;46.284;13.126;2022-11-15T00:07:34;1.65;;;1.40;;
41530;SDS011;58990;46.284;13.126;2022-11-15T00:10:00;2.13;;;1.67;;
41530;SDS011;58990;46.284;13.126;2022-11-15T00:12:27;1.63;;;1.52;;
41530;SDS011;58990;46.284;13.126;2022-11-15T00:14:53;1.85;;;1.42;;
41530;SDS011;58990;46.284;13.126;2022-11-15T00:17:18;5.38;;;1.63;;
41530;SDS011;58990;46.284;13.126;2022-11-15T00:19:44;1.42;;;1.33;;
41530;SDS011;58990;46.284;13.126;2022-11-15T00:22:09;2.75;;;1.80;;
41530;SDS011;58990;46.284;13.126;2022-11-15T00:24:35;2.70;;;1.63;;
41530;SDS011;58990;46.284;13.126;2022-11-15T00:27:00;2.70;;;1.65;;
41530;SDS011;58990;46.284;13.126;2022-11-15T00:29:26;1.25;;;1.08;;
41530;SDS011;58990;46.284;13.126;2022-11-15T00:31:51;3.20;;;2.05;;
41530;SDS011;58990;46.284;13.126;2022-11-15T00:34:17;1.45;;;1.35;;
41530;SDS011;58990;46.284;13.126;2022-11-15T00:36:46;2.15;;;1.30;;
41530;SDS011;58990;46.284;13.126;2022-11-15T00:39:11;2.10;;;1.80;;
41530;SDS011;58990;46.284;13.126;2022-11-15T00:41:37;2.33;;;1.80;;
41530;SDS011;58990;46.284;13.126;2022-11-15T00:44:02;1.80;;;1.52;;
41530;SDS011;58990;46.284;13.126;2022-11-15T00:46:27;2.15;;;1.55;;
41530;SDS011;58990;46.284;13.126;2022-11-15T00:48:53;2.53;;;1.60;;
41530;SDS011;58990;46.284;13.126;2022-11-15T00:51:18;1.65;;;1.52;;
41530;SDS011;58990;46.284;13.126;2022-11-15T00:53:43;2.40;;;1.50;;
41530;SDS011;58990;46.284;13.126;2022-11-15T00:56:09;1.83;;;1.52;;
41530;SDS011;58990;46.284;13.126;2022-11-15T00:58:34;3.05;;;1.70;;
41530;SDS011;58990;46.284;13.126;2022-11-15T01:01:07;2.33;;;1.63;;
41530;SDS011;58990;46.284;13.126;2022-11-15T01:03:37;1.75;;;1.55;;
41530;SDS011;58990;46.284;13.126;2022-11-15T01:06:04;3.08;;;1.50;;
41530;SDS011;58990;46.284;13.126;2022-11-15T01:08:30;2.75;;;1.73;;
41530;SDS011;58990;46.284;13.126;2022-11-15T01:10:59;2.45;;;1.30;;
41530;SDS011;58990;46.284;13.126;2022-11-15T01:13:26;2.53;;;2.03;;
41530;SDS011;58990;46.284;13.126;2022-11-15T01:15:54;1.60;;;1.45;;
41530;SDS011;58990;46.284;13.126;2022-11-15T01:18:20;3.00;;;1.65;;
41530;SDS011;58990;46.284;13.126;2022-11-15T01:20:45;3.05;;;1.10;;
41530;SDS011;58990;46.284;13.126;2022-11-15T01:23:10;1.55;;;1.33;;
41530;SDS011;58990;46.284;13.126;2022-11-15T01:25:36;1.98;;;1.50;;
41530;SDS011;58990;46.284;13.126;2022-11-15T01:28:01;2.30;;;1.33;;
41530;SDS011;58990;46.284;13.126;2022-11-15T01:30:26;1.17;;;1.08;;
41530;SDS011;58990;46.284;13.126;2022-11-15T01:32:52;2.03;;;1.70;;
41530;SDS011;58990;46.284;13.126;2022-11-15T01:35:17;1.98;;;1.52;;
41530;SDS011;58990;46.284;13.126;2022-11-15T01:37:43;1.90;;;1.65;;
41530;SDS011;58990;46.284;13.126;2022-11-15T01:40:08;2.13;;;1.40;;
41530;SDS011;58990;46.284;13.126;2022-11-15T01:42:34;1.75;;;1.52;;
41530;SDS011;58990;46.284;13.126;2022-11-15T01:44:59;2.22;;;1.90;;
41530;SDS011;58990;46.284;13.126;2022-11-15T01:50:04;3.15;;;1.98;;
41530;SDS011;58990;46.284;13.126;2022-11-15T01:52:37;2.22;;;1.55;;
41530;SDS011;58990;46.284;13.126;2022-11-15T01:57:43;3.42;;;1.80;;
41530;SDS011;58990;46.284;13.126;2022-11-15T02:00:12;1.90;;;1.38;;
41530;SDS011;58990;46.284;13.126;2022-11-15T02:02:38;2.15;;;1.70;;
41530;SDS011;58990;46.284;13.126;2022-11-15T02:05:04;5.30;;;2.25;;
41530;SDS011;58990;46.284;13.126;2022-11-15T02:07:29;2.10;;;1.55;;
41530;SDS011;58990;46.284;13.126;2022-11-15T02:10:01;2.70;;;1.58;;
41530;SDS011;58990;46.284;13.126;2022-11-15T02:12:31;1.92;;;1.58;;
41530;SDS011;58990;46.284;13.126;2022-11-15T02:14:57;1.85;;;1.67;;
41530;SDS011;58990;46.284;13.126;2022-11-15T02:39:42;1.83;;;1.70;;
41530;SDS011;58990;46.284;13.126;2022-11-15T02:42:43;2.50;;;1.80;;
41530;SDS011;58990;46.284;13.126;2022-11-15T02:45:39;1.92;;;1.20;;
41530;SDS011;58990;46.284;13.126;2022-11-15T02:48:11;1.90;;;1.40;;
41530;SDS011;58990;46.284;13.126;2022-11-15T02:50:37;1.90;;;1.70;;
41530;SDS011;58990;46.284;13.126;2022-11-15T02:53:03;2.22;;;1.27;;
41530;SDS011;58990;46.284;13.126;2022-11-15T03:00:57;1.55;;;1.45;;
41530;SDS011;58990;46.284;13.126;2022-11-15T03:06:16;1.50;;;1.25;;
41530;SDS011;58990;46.284;13.126;2022-11-15T03:11:32;1.73;;;1.45;;
41530;SDS011;58990;46.284;13.126;2022-11-15T03:19:40;2.00;;;1.42;;
41530;SDS011;58990;46.284;13.126;2022-11-15T03:22:21;1.38;;;1.27;;
41530;SDS011;58990;46.284;13.126;2022-11-15T03:24:53;1.23;;;1.13;;
41530;SDS011;58990;46.284;13.126;2022-11-15T03:27:23;1.33;;;1.00;;
41530;SDS011;58990;46.284;13.126;2022-11-15T03:29:56;1.50;;;1.40;;
41530;SDS011;58990;46.284;13.126;2022-11-15T03:32:26;1.23;;;1.10;;
41530;SDS011;58990;46.284;13.126;2022-11-15T03:34:57;1.33;;;1.10;;
41530;SDS011;58990;46.284;13.126;2022-11-15T03:37:37;1.73;;;1.27;;
41530;SDS011;58990;46.284;13.126;2022-11-15T03:40:24;1.95;;;0.93;;
41530;SDS011;58990;46.284;13.126;2022-11-15T03:43:00;1.75;;;1.40;;
41530;SDS011;58990;46.284;13.126;2022-11-15T03:45:33;1.45;;;1.30;;
41530;SDS011;58990;46.284;13.126;2022-11-15T03:48:10;1.60;;;1.40;;
41530;SDS011;58990;46.284;13.126;2022-11-15T03:50:49;2.35;;;1.80;;
41530;SDS011;58990;46.284;13.126;2022-11-15T03:53:15;2.10;;;1.70;;
41530;SDS011;58990;46.284;13.126;2022-11-15T03:55:41;1.98;;;1.33;;
41530;SDS011;58990;46.284;13.126;2022-11-15T03:58:06;2.30;;;1.70;;
41530;SDS011;58990;46.284;13.126;2022-11-15T04:00:32;1.50;;;1.40;;
41530;SDS011;58990;46.284;13.126;2022-11-15T04:02:57;1.58;;;1.48;;
41530;SDS011;58990;46.284;13.126;2022-11-15T04:05:23;2.38;;;1.48;;
41530;SDS011;58990;46.284;13.126;2022-11-15T04:07:48;2.60;;;1.60;;
41530;SDS011;58990;46.284;13.126;2022-11-15T04:10:13;2.97;;;1.50;;
41530;SDS011;58990;46.284;13.126;2022-11-15T04:12:40;2.95;;;1.50;;
41530;SDS011;58990;46.284;13.126;2022-11-15T04:17:49;1.88;;;1.55;;
41530;SDS011;58990;46.284;13.126;2022-11-15T04:23:02;2.92;;;1.52;;
41530;SDS011;58990;46.284;13.126;2022-11-15T04:25:51;1.97;;;1.30;;
41530;SDS011;58990;46.284;13.126;2022-11-15T04:28:18;2.83;;;1.65;;
41530;SDS011;58990;46.284;13.126;2022-11-15T04:30:44;1.75;;;1.33;;
41530;SDS011;58990;46.284;13.126;2022-11-15T04:33:09;1.63;;;1.50;;
41530;SDS011;58990;46.284;13.126;2022-11-15T04:35:35;1.88;;;1.50;;
41530;SDS011;58990;46.284;13.126;2022-11-15T04:38:01;1.88;;;1.67;;
41530;SDS011;58990;46.284;13.126;2022-11-15T04:40:27;1.45;;;1.35;;
41530;SDS011;58990;46.284;13.126;2022-11-15T04:42:52;3.53;;;1.73;;
41530;SDS011;58990;46.284;13.126;2022-11-15T04:45:18;2.22;;;1.63;;
41530;SDS011;58990;46.284;13.126;2022-11-15T04:47:44;1.45;;;1.35;;
41530;SDS011;58990;46.284;13.126;2022-11-15T04:50:10;2.20;;;1.80;;
41530;SDS011;58990;46.284;13.126;2022-11-15T04:52:39;1.63;;;1.52;;
41530;SDS011;58990;46.284;13.126;2022-11-15T04:55:05;2.40;;;1.60;;
41530;SDS011;58990;46.284;13.126;2022-11-15T04:57:31;2.42;;;1.55;;
41530;SDS011;58990;46.284;13.126;2022-11-15T04:59:56;1.88;;;1.27;;
41530;SDS011;58990;46.284;13.126;2022-11-15T05:02:21;1.38;;;1.23;;
41530;SDS011;58990;46.284;13.126;2022-11-15T05:04:47;2.40;;;1.52;;
41530;SDS011;58990;46.284;13.126;2022-11-15T05:07:12;1.98;;;1.35;;
41530;SDS011;58990;46.284;13.126;2022-11-15T05:09:38;1.55;;;1.20;;
41530;SDS011;58990;46.284;13.126;2022-11-15T05:12:03;5.20;;;1.45;;
41530;SDS011;58990;46.284;13.126;2022-11-15T05:14:28;1.00;;;1.00;;
41530;SDS011;58990;46.284;13.126;2022-11-15T05:16:54;1.55;;;1.33;;
41530;SDS011;58990;46.284;13.126;2022-11-15T05:19:19;1.90;;;1.65;;
41530;SDS011;58990;46.284;13.126;2022-11-15T05:21:45;4.95;;;1.40;;
41530;SDS011;58990;46.284;13.126;2022-11-15T05:24:10;2.22;;;1.40;;
41530;SDS011;58990;46.284;13.126;2022-11-15T05:26:36;2.85;;;1.40;;
41530;SDS011;58990;46.284;13.126;2022-11-15T05:29:01;1.23;;;1.05;;
41530;SDS011;58990;46.284;13.126;2022-11-15T05:31:27;1.85;;;1.40;;
41530;SDS011;58990;46.284;13.126;2022-11-15T05:33:53;2.50;;;1.67;;
41530;SDS011;58990;46.284;13.126;2022-11-15T05:39:07;1.83;;;1.42;;
41530;SDS011;58990;46.284;13.126;2022-11-15T05:41:35;1.50;;;1.40;;
41530;SDS011;58990;46.284;13.126;2022-11-15T05:44:05;1.55;;;1.45;;
41530;SDS011;58990;46.284;13.126;2022-11-15T05:46:34;1.47;;;1.17;;
41530;SDS011;58990;46.284;13.126;2022-11-15T05:49:03;1.65;;;1.33;;
41530;SDS011;58990;46.284;13.126;2022-11-15T05:51:32;2.67;;;1.58;;
41530;SDS011;58990;46.284;13.126;2022-11-15T05:53:58;3.50;;;1.55;;
41530;SDS011;58990;46.284;13.126;2022-11-15T05:56:24;2.38;;;1.60;;
41530;SDS011;58990;46.284;13.126;2022-11-15T05:58:51;1.70;;;1.30;;
41530;SDS011;58990;46.284;13.126;2022-11-15T06:01:18;2.38;;;1.63;;
41530;SDS011;58990;46.284;13.126;2022-11-15T06:03:43;3.42;;;1.90;;
41530;SDS011;58990;46.284;13.126;2022-11-15T06:06:09;1.75;;;1.23;;
41530;SDS011;58990;46.284;13.126;2022-11-15T06:08:34;1.77;;;1.42;;
41530;SDS011;58990;46.284;13.126;2022-11-15T06:11:04;1.25;;;1.15;;
41530;SDS011;58990;46.284;13.126;2022-11-15T06:13:30;1.50;;;1.20;;
41530;SDS011;58990;46.284;13.126;2022-11-15T06:15:56;1.17;;;1.08;;
41530;SDS011;58990;46.284;13.126;2022-11-15T06:18:22;1.88;;;1.30;;
41530;SDS011;58990;46.284;13.126;2022-11-15T06:20:47;1.17;;;1.13;;
41530;SDS011;58990;46.284;13.126;2022-11-15T06:23:13;1.27;;;1.17;;
41530;SDS011;58990;46.284;13.126;2022-11-15T06:25:38;2.10;;;1.52;;
41530;SDS011;58990;46.284;13.126;2022-11-15T06:28:10;1.13;;;1.10;;
41530;SDS011;58990;46.284;13.126;2022-11-15T06:30:35;1.95;;;1.50;;
41530;SDS011;58990;46.284;13.126;2022-11-15T06:33:04;2.17;;;1.48;;
41530;SDS011;58990;46.284;13.126;2022-11-15T06:35:30;1.90;;;1.42;;
41530;SDS011;58990;46.284;13.126;2022-11-15T06:38:02;1.38;;;1.27;;
41530;SDS011;58990;46.284;13.126;2022-11-15T06:40:29;1.33;;;1.15;;
41530;SDS011;58990;46.284;13.126;2022-11-15T06:42:57;1.50;;;1.30;;
41530;SDS011;58990;46.284;13.126;2022-11-15T06:45:24;2.07;;;1.57;;
41530;SDS011;58990;46.284;13.126;2022-11-15T06:47:49;1.95;;;1.20;;
41530;SDS011;58990;46.284;13.126;2022-11-15T06:50:15;1.17;;;0.90;;
41530;SDS011;58990;46.284;13.126;2022-11-15T06:52:40;1.10;;;1.00;;
41530;SDS011;58990;46.284;13.126;2022-11-15T06:55:06;1.40;;;1.30;;
41530;SDS011;58990;46.284;13.126;2022-11-15T06:57:32;1.98;;;1.40;;
41530;SDS011;58990;46.284;13.126;2022-11-15T06:59:57;1.38;;;1.08;;
41530;SDS011;58990;46.284;13.126;2022-11-15T07:02:23;2.72;;;1.40;;
41530;SDS011;58990;46.284;13.126;2022-11-15T07:04:48;1.40;;;1.30;;
41530;SDS011;58990;46.284;13.126;2022-11-15T07:07:14;1.23;;;1.02;;
41530;SDS011;58990;46.284;13.126;2022-11-15T07:09:39;1.75;;;1.50;;
41530;SDS011;58990;46.284;13.126;2022-11-15T07:12:05;1.52;;;1.30;;
41530;SDS011;58990;46.284;13.126;2022-11-15T07:14:30;0.90;;;0.90;;
41530;SDS011;58990;46.284;13.126;2022-11-15T07:16:55;1.58;;;1.48;;
41530;SDS011;58990;46.284;13.126;2022-11-15T07:19:21;2.45;;;1.50;;
41530;SDS011;58990;46.284;13.126;2022-11-15T07:21:46;1.23;;;1.13;;
41530;SDS011;58990;46.284;13.126;2022-11-15T07:24:12;1.75;;;1.45;;
41530;SDS011;58990;46.284;13.126;2022-11-15T07:26:37;1.73;;;0.85;;
41530;SDS011;58990;46.284;13.126;2022-11-15T07:29:03;2.03;;;1.15;;
41530;SDS011;58990;46.284;13.126;2022-11-15T07:31:28;1.40;;;1.30;;
41530;SDS011;58990;46.284;13.126;2022-11-15T07:33:53;1.73;;;1.23;;
41530;SDS011;58990;46.284;13.126;2022-11-15T07:36:19;1.13;;;1.02;;
41530;SDS011;58990;46.284;13.126;2022-11-15T07:38:44;0.95;;;0.82;;
41530;SDS011;58990;46.284;13.126;2022-11-15T07:41:10;1.30;;;1.08;;
41530;SDS011;58990;46.284;13.126;2022-11-15T07:43:35;1.95;;;1.10;;
41530;SDS011;58990;46.284;13.126;2022-11-15T07:46:04;1.27;;;1.17;;
41530;SDS011;58990;46.284;13.126;2022-11-15T07:48:34;1.45;;;1.35;;
41530;SDS011;58990;46.284;13.126;2022-11-15T07:51:00;3.40;;;1.17;;
41530;SDS011;58990;46.284;13.126;2022-11-15T07:53:25;1.42;;;1.30;;
41530;SDS011;58990;46.284;13.126;2022-11-15T07:55:51;2.33;;;1.75;;
41530;SDS011;58990;46.284;13.126;2022-11-15T07:58:18;1.27;;;1.17;;
41530;SDS011;58990;46.284;13.126;2022-11-15T08:00:44;1.65;;;1.50;;
41530;SDS011;58990;46.284;13.126;2022-11-15T08:03:11;1.73;;;1.20;;
41530;SDS011;58990;46.284;13.126;2022-11-15T08:05:38;1.30;;;1.20;;
41530;SDS011;58990;46.284;13.126;2022-11-15T08:08:05;2.20;;;1.10;;
41530;SDS011;58990;46.284;13.126;2022-11-15T08:10:31;1.05;;;1.05;;
41530;SDS011;58990;46.284;13.126;2022-11-15T08:12:58;1.60;;;1.25;;
41530;SDS011;58990;46.284;13.126;2022-11-15T08:15:28;0.90;;;0.85;;
41530;SDS011;58990;46.284;13.126;2022-11-15T08:17:55;1.25;;;0.98;;
41530;SDS011;58990;46.284;13.126;2022-11-15T08:20:22;0.98;;;0.88;;
41530;SDS011;58990;46.284;13.126;2022-11-15T08:22:48;2.15;;;1.00;;
41530;SDS011;58990;46.284;13.126;2022-11-15T08:25:14;1.58;;;1.15;;
41530;SDS011;58990;46.284;13.126;2022-11-15T08:27:40;1.77;;;1.25;;
41530;SDS011;58990;46.284;13.126;2022-11-15T08:30:05;1.13;;;0.93;;
41530;SDS011;58990;46.284;13.126;2022-11-15T08:32:31;0.60;;;0.60;;
41530;SDS011;58990;46.284;13.126;2022-11-15T08:34:57;0.93;;;0.93;;
41530;SDS011;58990;46.284;13.126;2022-11-15T08:37:22;1.52;;;0.80;;
41530;SDS011;58990;46.284;13.126;2022-11-15T08:39:48;1.15;;;1.02;;
41530;SDS011;58990;46.284;13.126;2022-11-15T08:42:13;4.00;;;1.10;;
41530;SDS011;58990;46.284;13.126;2022-11-15T08:44:41;1.05;;;0.95;;
41530;SDS011;58990;46.284;13.126;2022-11-15T08:47:06;1.17;;;0.88;;
41530;SDS011;58990;46.284;13.126;2022-11-15T08:49:32;1.50;;;1.15;;
41530;SDS011;58990;46.284;13.126;2022-11-15T08:51:57;1.02;;;1.00;;
41530;SDS011;58990;46.284;13.126;2022-11-15T08:54:23;1.92;;;1.10;;
41530;SDS011;58990;46.284;13.126;2022-11-15T08:56:48;1.52;;;1.30;;
41530;SDS011;58990;46.284;13.126;2022-11-15T08:59:14;1.98;;;1.27;;
41530;SDS011;58990;46.284;13.126;2022-11-15T09:01:39;2.28;;;0.95;;
41530;SDS011;58990;46.284;13.126;2022-11-15T09:04:04;1.20;;;1.10;;
41530;SDS011;58990;46.284;13.126;2022-11-15T09:06:30;0.88;;;0.88;;
41530;SDS011;58990;46.284;13.126;2022-11-15T09:08:56;2.58;;;1.23;;
41530;SDS011;58990;46.284;13.126;2022-11-15T09:11:22;2.13;;;1.85;;
41530;SDS011;58990;46.284;13.126;2022-11-15T09:13:48;1.85;;;1.38;;
41530;SDS011;58990;46.284;13.126;2022-11-15T09:16:14;1.90;;;1.40;;
41530;SDS011;58990;46.284;13.126;2022-11-15T09:18:40;3.15;;;1.27;;
41530;SDS011;58990;46.284;13.126;2022-11-15T09:21:06;1.98;;;1.42;;
41530;SDS011;58990;46.284;13.126;2022-11-15T09:23:34;1.45;;;1.02;;
41530;SDS011;58990;46.284;13.126;2022-11-15T09:26:00;1.23;;;1.10;;
41530;SDS011;58990;46.284;13.126;2022-11-15T09:28:27;1.05;;;0.95;;
41530;SDS011;58990;46.284;13.126;2022-11-15T09:31:00;1.40;;;1.17;;
41530;SDS011;58990;46.284;13.126;2022-11-15T09:33:27;0.80;;;0.80;;
41530;SDS011;58990;46.284;13.126;2022-11-15T09:35:53;1.05;;;0.93;;
41530;SDS011;58990;46.284;13.126;2022-11-15T09:38:18;0.75;;;0.75;;
41530;SDS011;58990;46.284;13.126;2022-11-15T09:40:44;3.08;;;1.77;;
41530;SDS011;58990;46.284;13.126;2022-11-15T09:48:55;1.20;;;1.10;;
41530;SDS011;58990;46.284;13.126;2022-11-15T09:56:48;1.63;;;1.20;;
41530;SDS011;58990;46.284;13.126;2022-11-15T10:05:14;2.78;;;1.30;;
41530;SDS011;58990;46.284;13.126;2022-11-15T10:10:36;1.13;;;1.08;;
41530;SDS011;58990;46.284;13.126;2022-11-15T10:13:13;1.88;;;1.30;;
41530;SDS011;58990;46.284;13.126;2022-11-15T10:15:52;1.58;;;1.27;;
41530;SDS011;58990;46.284;13.126;2022-11-15T10:18:35;1.20;;;1.10;;
41530;SDS011;58990;46.284;13.126;2022-11-15T10:21:15;1.23;;;1.10;;
41530;SDS011;58990;46.284;13.126;2022-11-15T10:23:44;1.25;;;1.05;;
41530;SDS011;58990;46.284;13.126;2022-11-15T10:26:14;1.45;;;0.80;;
41530;SDS011;58990;46.284;13.126;2022-11-15T10:28:41;1.85;;;1.00;;
41530;SDS011;58990;46.284;13.126;2022-11-15T10:31:24;1.70;;;1.55;;
41530;SDS011;58990;46.284;13.126;2022-11-15T10:33:51;1.30;;;1.20;;
41530;SDS011;58990;46.284;13.126;2022-11-15T10:36:35;1.23;;;1.08;;
41530;SDS011;58990;46.284;13.126;2022-11-15T10:39:01;1.92;;;1.60;;
41530;SDS011;58990;46.284;13.126;2022-11-15T10:46:44;2.17;;;1.98;;
41530;SDS011;58990;46.284;13.126;2022-11-15T10:51:56;2.75;;;1.52;;
41530;SDS011;58990;46.284;13.126;2022-11-15T10:54:36;1.48;;;1.38;;
41530;SDS011;58990;46.284;13.126;2022-11-15T10:57:06;1.83;;;1.50;;
41530;SDS011;58990;46.284;13.126;2022-11-15T10:59:40;1.95;;;1.60;;
41530;SDS011;58990;46.284;13.126;2022-11-15T11:05:26;2.08;;;1.65;;
41530;SDS011;58990;46.284;13.126;2022-11-15T11:07:58;1.60;;;1.50;;
41530;SDS011;58990;46.284;13.126;2022-11-15T11:10:26;2.80;;;1.90;;
41530;SDS011;58990;46.284;13.126;2022-11-15T11:12:52;4.03;;;1.63;;
41530;SDS011;58990;46.284;13.126;2022-11-15T11:15:18;4.30;;;1.73;;
41530;SDS011;58990;46.284;13.126;2022-11-15T11:26:10;5.28;;;2.83;;
41530;SDS011;58990;46.284;13.126;2022-11-15T11:39:53;3.33;;;2.13;;
41530;SDS011;58990;46.284;13.126;2022-11-15T11:48:12;3.88;;;2.20;;
41530;SDS011;58990;46.284;13.126;2022-11-15T11:50:40;2.13;;;1.83;;
41530;SDS011;58990;46.284;13.126;2022-11-15T11:55:57;3.88;;;2.58;;
41530;SDS011;58990;46.284;13.126;2022-11-15T11:58:37;4.10;;;2.05;;
41530;SDS011;58990;46.284;13.126;2022-11-15T12:04:00;4.68;;;2.25;;
41530;SDS011;58990;46.284;13.126;2022-11-15T12:06:35;4.35;;;2.53;;
41530;SDS011;58990;46.284;13.126;2022-11-15T12:09:14;5.70;;;2.83;;
41530;SDS011;58990;46.284;13.126;2022-11-15T12:17:47;3.88;;;2.45;;
41530;SDS011;58990;46.284;13.126;2022-11-15T12:20:17;2.40;;;1.98;;
41530;SDS011;58990;46.284;13.126;2022-11-15T12:22:57;3.00;;;2.30;;
41530;SDS011;58990;46.284;13.126;2022-11-15T12:33:41;5.35;;;2.88;;
41530;SDS011;58990;46.284;13.126;2022-11-15T12:38:59;7.20;;;3.42;;
41530;SDS011;58990;46.284;13.126;2022-11-15T12:41:36;3.25;;;2.72;;
41530;SDS011;58990;46.284;13.126;2022-11-15T12:44:03;5.40;;;3.45;;
41530;SDS011;58990;46.284;13.126;2022-11-15T12:59:54;6.13;;;2.55;;
41530;SDS011;58990;46.284;13.126;2022-11-15T13:02:38;4.28;;;2.78;;
41530;SDS011;58990;46.284;13.126;2022-11-15T13:10:33;5.20;;;2.90;;
41530;SDS011;58990;46.284;13.126;2022-11-15T13:13:03;5.25;;;2.90;;
41530;SDS011;58990;46.284;13.126;2022-11-15T13:20:57;5.13;;;2.97;;
41530;SDS011;58990;46.284;13.126;2022-11-15T13:23:23;4.07;;;2.70;;
41530;SDS011;58990;46.284;13.126;2022-11-15T13:28:35;5.15;;;2.92;;
41530;SDS011;58990;46.284;13.126;2022-11-15T13:33:55;6.57;;;3.47;;
41530;SDS011;58990;46.284;13.126;2022-11-15T13:38:56;5.20;;;2.95;;
41530;SDS011;58990;46.284;13.126;2022-11-15T13:41:31;9.80;;;5.18;;
41530;SDS011;58990;46.284;13.126;2022-11-15T13:43:58;6.55;;;3.35;;
41530;SDS011;58990;46.284;13.126;2022-11-15T13:46:26;5.35;;;3.42;;
41530;SDS011;58990;46.284;13.126;2022-11-15T13:49:10;5.05;;;3.33;;
41530;SDS011;58990;46.284;13.126;2022-11-15T13:54:27;6.47;;;3.30;;
41530;SDS011;58990;46.284;13.126;2022-11-15T13:59:59;6.10;;;3.53;;
41530;SDS011;58990;46.284;13.126;2022-11-15T14:02:30;5.65;;;3.70;;
41530;SDS011;58990;46.284;13.126;2022-11-15T14:04:59;7.20;;;3.47;;
41530;SDS011;58990;46.284;13.126;2022-11-15T14:07:28;5.15;;;3.97;;
41530;SDS011;58990;46.284;13.126;2022-11-15T14:09:55;8.68;;;3.30;;
41530;SDS011;58990;46.284;13.126;2022-11-15T14:12:28;5.57;;;3.83;;
41530;SDS011;58990;46.284;13.126;2022-11-15T14:14:57;10.10;;;4.53;;
41530;SDS011;58990;46.284;13.126;2022-11-15T14:17:42;8.23;;;3.92;;
41530;SDS011;58990;46.284;13.126;2022-11-15T14:23:02;6.22;;;3.90;;
41530;SDS011;58990;46.284;13.126;2022-11-15T14:25:33;7.10;;;4.43;;
41530;SDS011;58990;46.284;13.126;2022-11-15T14:28:28;8.07;;;4.88;;
41530;SDS011;58990;46.284;13.126;2022-11-15T14:31:01;8.43;;;5.20;;
41530;SDS011;58990;46.284;13.126;2022-11-15T14:36:14;9.52;;;4.97;;
41530;SDS011;58990;46.284;13.126;2022-11-15T14:38:51;11.00;;;5.38;;
41530;SDS011;58990;46.284;13.126;2022-11-15T14:41:24;8.48;;;4.93;;
41530;SDS011;58990;46.284;13.126;2022-11-15T14:43:52;8.27;;;5.05;;
41530;SDS011;58990;46.284;13.126;2022-11-15T14:46:18;8.00;;;5.20;;
41530;SDS011;58990;46.284;13.126;2022-11-15T14:48:43;8.90;;;5.13;;
41530;SDS011;58990;46.284;13.126;2022-11-15T14:51:11;9.50;;;5.68;;
41530;SDS011;58990;46.284;13.126;2022-11-15T14:53:44;8.63;;;5.53;;
41530;SDS011;58990;46.284;13.126;2022-11-15T14:56:10;9.50;;;5.68;;
41530;SDS011;58990;46.284;13.126;2022-11-15T14:58:36;10.40;;;6.13;;
41530;SDS011;58990;46.284;13.126;2022-11-15T15:01:02;10.40;;;6.03;;
41530;SDS011;58990;46.284;13.126;2022-11-15T15:03:35;8.25;;;5.50;;
41530;SDS011;58990;46.284;13.126;2022-11-15T15:06:01;10.40;;;6.63;;
41530;SDS011;58990;46.284;13.126;2022-11-15T15:08:26;11.95;;;6.15;;
41530;SDS011;58990;46.284;13.126;2022-11-15T15:10:51;12.05;;;6.38;;
41530;SDS011;58990;46.284;13.126;2022-11-15T15:13:19;16.25;;;7.05;;
41530;SDS011;58990;46.284;13.126;2022-11-15T15:15:46;11.65;;;6.32;;
41530;SDS011;58990;46.284;13.126;2022-11-15T15:18:12;10.63;;;6.53;;
41530;SDS011;58990;46.284;13.126;2022-11-15T15:20:38;8.50;;;5.63;;
41530;SDS011;58990;46.284;13.126;2022-11-15T15:23:10;13.93;;;7.13;;
41530;SDS011;58990;46.284;13.126;2022-11-15T15:25:41;16.45;;;9.60;;
41530;SDS011;58990;46.284;13.126;2022-11-15T15:28:07;19.25;;;10.20;;
41530;SDS011;58990;46.284;13.126;2022-11-15T15:30:32;13.75;;;8.73;;
41530;SDS011;58990;46.284;13.126;2022-11-15T15:32:57;12.50;;;7.80;;
41530;SDS011;58990;46.284;13.126;2022-11-15T15:35:23;13.15;;;7.20;;
41530;SDS011;58990;46.284;13.126;2022-11-15T15:37:51;15.50;;;7.70;;
41530;SDS011;58990;46.284;13.126;2022-11-15T15:40:18;13.48;;;7.45;;
41530;SDS011;58990;46.284;13.126;2022-11-15T15:42:45;14.52;;;7.32;;
41530;SDS011;58990;46.284;13.126;2022-11-15T15:45:13;15.20;;;8.93;;
41530;SDS011;58990;46.284;13.126;2022-11-15T15:47:39;22.02;;;10.45;;
41530;SDS011;58990;46.284;13.126;2022-11-15T15:50:14;19.98;;;10.15;;
41530;SDS011;58990;46.284;13.126;2022-11-15T15:52:54;16.52;;;9.02;;
41530;SDS011;58990;46.284;13.126;2022-11-15T15:55:22;17.15;;;9.68;;
41530;SDS011;58990;46.284;13.126;2022-11-15T15:57:48;19.70;;;9.70;;
41530;SDS011;58990;46.284;13.126;2022-11-15T16:00:13;17.65;;;8.95;;
41530;SDS011;58990;46.284;13.126;2022-11-15T16:02:39;15.00;;;9.00;;
41530;SDS011;58990;46.284;13.126;2022-11-15T16:05:05;13.48;;;8.40;;
41530;SDS011;58990;46.284;13.126;2022-11-15T16:07:31;14.02;;;8.10;;
41530;SDS011;58990;46.284;13.126;2022-11-15T16:09:56;15.73;;;8.70;;
41530;SDS011;58990;46.284;13.126;2022-11-15T16:12:29;15.65;;;8.43;;
41530;SDS011;58990;46.284;13.126;2022-11-15T16:14:56;14.85;;;7.43;;
41530;SDS011;58990;46.284;13.126;2022-11-15T16:17:22;14.82;;;8.52;;
41530;SDS011;58990;46.284;13.126;2022-11-15T16:19:50;15.52;;;8.90;;
41530;SDS011;58990;46.284;13.126;2022-11-15T16:22:15;16.17;;;8.55;;
41530;SDS011;58990;46.284;13.126;2022-11-15T16:24:41;18.77;;;10.02;;
41530;SDS011;58990;46.284;13.126;2022-11-15T16:27:10;19.00;;;9.80;;
41530;SDS011;58990;46.284;13.126;2022-11-15T16:29:39;19.45;;;9.90;;
41530;SDS011;58990;46.284;13.126;2022-11-15T16:32:04;15.15;;;8.82;;
41530;SDS011;58990;46.284;13.126;2022-11-15T16:34:29;15.43;;;9.23;;
41530;SDS011;58990;46.284;13.126;2022-11-15T16:36:55;19.48;;;9.75;;
41530;SDS011;58990;46.284;13.126;2022-11-15T16:39:20;21.05;;;10.57;;
41530;SDS011;58990;46.284;13.126;2022-11-15T16:41:47;28.38;;;14.90;;
41530;SDS011;58990;46.284;13.126;2022-11-15T16:44:13;30.20;;;15.45;;
41530;SDS011;58990;46.284;13.126;2022-11-15T16:46:40;45.83;;;22.80;;
41530;SDS011;58990;46.284;13.126;2022-11-15T16:49:13;40.30;;;18.58;;
41530;SDS011;58990;46.284;13.126;2022-11-15T16:51:39;33.10;;;16.80;;
41530;SDS011;58990;46.284;13.126;2022-11-15T16:54:06;34.30;;;16.60;;
41530;SDS011;58990;46.284;13.126;2022-11-15T16:56:32;36.60;;;18.08;;
41530;SDS011;58990;46.284;13.126;2022-11-15T16:58:58;52.40;;;22.10;;
41530;SDS011;58990;46.284;13.126;2022-11-15T17:01:25;47.03;;;19.77;;
41530;SDS011;58990;46.284;13.126;2022-11-15T17:03:53;31.10;;;15.20;;
41530;SDS011;58990;46.284;13.126;2022-11-15T17:06:19;31.73;;;15.73;;
41530;SDS011;58990;46.284;13.126;2022-11-15T17:08:45;18.77;;;11.20;;
41530;SDS011;58990;46.284;13.126;2022-11-15T17:11:13;22.25;;;12.18;;
41530;SDS011;58990;46.284;13.126;2022-11-15T17:13:40;26.58;;;14.25;;
41530;SDS011;58990;46.284;13.126;2022-11-15T17:16:06;35.45;;;16.08;;
41530;SDS011;58990;46.284;13.126;2022-11-15T17:18:34;44.05;;;19.52;;
41530;SDS011;58990;46.284;13.126;2022-11-15T17:21:08;51.72;;;21.10;;
41530;SDS011;58990;46.284;13.126;2022-11-15T17:23:37;39.08;;;19.67;;
41530;SDS011;58990;46.284;13.126;2022-11-15T17:26:03;34.83;;;22.42;;
41530;SDS011;58990;46.284;13.126;2022-11-15T17:28:33;31.77;;;18.67;;
41530;SDS011;58990;46.284;13.126;2022-11-15T17:30:59;25.45;;;14.85;;